createdAt,value
2019-04-28T00:00:41.430Z,99229.38
2019-04-28T00:06:46.017Z,99227.96
2019-04-28T00:12:51.111Z,99227.52
2019-04-28T00:18:55.678Z,99231.33
2019-04-28T00:25:04.655Z,99234.70
2019-04-28T00:31:11.158Z,99235.20
2019-04-28T00:37:17.574Z,99240.05
2019-04-28T00:43:22.381Z,99244.17
2019-04-28T00:49:44.737Z,99251.06
2019-04-28T00:55:49.322Z,99256.11
2019-04-28T01:01:55.514Z,99255.18
2019-04-28T01:08:01.116Z,99255.59
2019-04-28T01:14:06.256Z,99262.55
2019-04-28T01:20:15.351Z,99267.56
2019-04-28T01:26:20.109Z,99267.20
2019-04-28T01:32:26.491Z,99260.10
2019-04-28T01:38:31.103Z,99262.81
2019-04-28T01:44:35.642Z,99272.70
2019-04-28T01:50:40.188Z,99276.05
2019-04-28T01:56:44.723Z,99282.41
2019-04-28T02:02:50.521Z,99288.70
2019-04-28T02:08:55.296Z,99288.92
2019-04-28T02:15:01.016Z,99293.25
2019-04-28T02:21:07.569Z,99292.23
2019-04-28T02:27:13.873Z,99292.85
2019-04-28T02:33:20.978Z,99301.84
2019-04-28T02:39:24.874Z,99298.36
2019-04-28T02:45:31.623Z,99303.05
2019-04-28T02:51:40.750Z,99302.07
2019-04-28T02:57:44.806Z,99319.82
2019-04-28T03:03:50.768Z,99309.77
2019-04-28T03:09:55.626Z,99314.29
2019-04-28T03:16:01.536Z,99311.61
2019-04-28T03:22:06.576Z,99317.94
2019-04-28T03:28:25.108Z,99322.23
2019-04-28T03:34:44.180Z,99327.99
2019-04-28T03:40:51.295Z,99329.97
2019-04-28T03:46:56.584Z,99340.56
2019-04-28T03:53:01.248Z,99338.21
2019-04-28T03:59:05.943Z,99348.00
2019-04-28T04:05:11.204Z,99355.64
2019-04-28T04:11:26.257Z,99352.14
2019-04-28T04:17:41.513Z,99349.47
2019-04-28T04:23:46.175Z,99360.24
2019-04-28T04:29:51.024Z,99357.20
2019-04-28T04:35:55.779Z,99361.73
2019-04-28T04:42:00.714Z,99364.72
2019-04-28T04:48:05.684Z,99377.63
2019-04-28T04:54:10.859Z,99377.47
2019-04-28T05:00:26.293Z,99386.41
2019-04-28T05:06:41.497Z,99391.60
2019-04-28T05:12:46.388Z,99393.77
2019-04-28T05:18:50.935Z,99403.86
2019-04-28T05:25:00.110Z,99398.92
2019-04-28T05:31:04.769Z,99403.08
2019-04-28T05:37:10.792Z,99409.33
2019-04-28T05:43:15.580Z,99417.09
2019-04-28T05:49:23.357Z,99420.61
2019-04-28T05:55:30.547Z,99433.34
2019-04-28T06:01:36.850Z,99437.31
2019-04-28T06:07:51.609Z,99436.94
2019-04-28T06:13:56.150Z,99440.11
2019-04-28T06:20:00.731Z,99439.88
2019-04-28T06:26:05.302Z,99443.13
2019-04-28T06:32:09.944Z,99449.36
2019-04-28T06:38:14.484Z,99453.81
2019-04-28T06:44:19.103Z,99454.81
2019-04-28T06:50:23.643Z,99454.05
2019-04-28T06:56:28.241Z,99464.34
2019-04-28T07:02:32.849Z,99469.80
2019-04-28T07:08:37.417Z,99466.11
2019-04-28T07:14:41.994Z,99467.69
2019-04-28T07:20:48.200Z,99468.43
2019-04-28T07:26:52.765Z,99479.99
2019-04-28T07:32:57.370Z,99483.19
2019-04-28T07:39:02.020Z,99479.24
2019-04-28T07:45:07.982Z,99478.33
2019-04-28T07:51:12.561Z,99490.06
2019-04-28T07:57:17.197Z,99494.47
2019-04-28T08:03:21.832Z,99496.81
2019-04-28T08:09:26.453Z,99509.72
2019-04-28T08:15:31.012Z,99506.72
2019-04-28T08:21:35.561Z,99511.53
2019-04-28T08:27:40.703Z,99515.67
2019-04-28T08:33:46.898Z,99523.22
2019-04-28T08:40:03.249Z,99522.16
2019-04-28T08:46:07.869Z,99537.11
2019-04-28T08:52:12.495Z,99543.75
2019-04-28T08:58:17.053Z,99546.93
2019-04-28T09:04:21.606Z,99548.01
2019-04-28T09:10:26.324Z,99541.11
2019-04-28T09:16:30.955Z,99549.73
2019-04-28T09:22:35.578Z,99552.09
2019-04-28T09:28:40.200Z,99554.58
2019-04-28T09:34:44.748Z,99549.63
2019-04-28T09:40:49.393Z,99553.59
2019-04-28T09:46:54.022Z,99558.02
2019-04-28T09:52:58.610Z,99552.09
2019-04-28T09:59:03.240Z,99556.84
2019-04-28T10:05:09.740Z,99564.76
2019-04-28T10:11:14.513Z,99567.75
2019-04-28T10:17:19.037Z,99576.66
2019-04-28T10:23:23.658Z,99581.75
2019-04-28T10:29:28.332Z,99581.06
2019-04-28T10:35:32.973Z,99582.46
2019-04-28T10:41:39.182Z,99594.61
2019-04-28T10:47:43.791Z,99600.11
2019-04-28T10:53:48.362Z,99586.89
2019-04-28T10:59:52.916Z,99576.56
2019-04-28T11:05:57.629Z,99588.75
2019-04-28T11:12:02.545Z,99589.68
2019-04-28T11:18:09.068Z,99597.64
2019-04-28T11:24:13.620Z,99585.66
2019-04-28T11:30:19.601Z,99590.40
2019-04-28T11:36:24.520Z,99588.98
2019-04-28T11:42:29.085Z,99593.02
2019-04-28T11:48:33.710Z,99588.02
2019-04-28T11:54:38.272Z,99588.45
2019-04-28T12:00:42.998Z,99585.14
2019-04-28T12:06:47.822Z,99586.02
2019-04-28T12:12:54.843Z,99582.94
2019-04-28T12:19:09.871Z,99587.81
2019-04-28T12:25:14.631Z,99592.42
2019-04-28T12:31:19.287Z,99597.45
2019-04-28T12:37:23.858Z,99605.08
2019-04-28T12:43:28.397Z,99601.09
2019-04-28T12:49:34.623Z,99602.87
2019-04-28T12:55:39.166Z,99592.84
2019-04-28T13:01:57.339Z,99598.80
2019-04-28T13:08:01.960Z,99606.33
2019-04-28T13:14:06.581Z,99614.08
2019-04-28T13:20:11.282Z,99606.59
2019-04-28T13:26:15.841Z,99611.66
2019-04-28T13:32:20.437Z,99606.72
2019-04-28T13:38:25.055Z,99624.37
2019-04-28T13:44:49.517Z,99631.09
2019-04-28T13:50:54.063Z,99631.05
2019-04-28T13:56:58.625Z,99641.50
2019-04-28T14:03:08.685Z,99631.66
2019-04-28T14:09:14.937Z,99633.13
2019-04-28T14:15:19.504Z,99640.19
2019-04-28T14:21:24.094Z,99638.39
2019-04-28T14:27:28.709Z,99635.08
2019-04-28T14:33:33.337Z,99642.17
2019-04-28T14:39:37.880Z,99642.91
2019-04-28T14:45:42.431Z,99636.77
2019-04-28T14:51:47.122Z,99639.95
2019-04-28T14:57:51.650Z,99645.83
2019-04-28T15:03:57.866Z,99641.25
2019-04-28T15:10:04.093Z,99642.28
2019-04-28T15:16:08.827Z,99644.48
2019-04-28T15:22:13.384Z,99645.53
2019-04-28T15:28:18.011Z,99643.45
2019-04-28T15:34:22.592Z,99647.22
2019-04-28T15:40:27.218Z,99643.27
2019-04-28T15:46:31.765Z,99651.09
2019-04-28T15:52:36.322Z,99654.84
2019-04-28T15:58:40.943Z,99654.38
2019-04-28T16:04:45.485Z,99645.76
2019-04-28T16:10:50.033Z,99641.59
2019-04-28T16:16:54.589Z,99644.23
2019-04-28T16:22:59.204Z,99644.67
2019-04-28T16:29:04.023Z,99646.62
2019-04-28T16:35:08.825Z,99656.21
2019-04-28T16:41:26.604Z,99651.91
2019-04-28T16:47:31.176Z,99653.59
2019-04-28T16:53:37.278Z,99653.64
2019-04-28T16:59:51.982Z,99665.63
2019-04-28T17:05:56.772Z,99663.36
2019-04-28T17:12:01.333Z,99667.75
2019-04-28T17:18:06.138Z,99669.03
2019-04-28T17:24:10.717Z,99672.29
2019-04-28T17:30:15.487Z,99675.55
2019-04-28T17:36:20.176Z,99684.44
2019-04-28T17:42:24.744Z,99691.77
2019-04-28T17:48:37.067Z,99689.84
2019-04-28T17:54:41.631Z,99700.44
2019-04-28T18:00:55.173Z,99702.83
2019-04-28T18:07:06.847Z,99699.91
2019-04-28T18:13:11.577Z,99712.70
2019-04-28T18:19:17.764Z,99729.41
2019-04-28T18:25:22.449Z,99730.75
2019-04-28T18:31:26.770Z,99743.47
2019-04-28T18:37:49.228Z,99750.81
2019-04-28T18:44:04.426Z,99754.11
2019-04-28T18:50:09.220Z,99770.23
2019-04-28T18:56:13.850Z,99775.52
2019-04-28T19:02:28.931Z,99787.58
2019-04-28T19:08:48.498Z,99806.84
2019-04-28T19:14:45.891Z,99805.36
2019-04-28T19:20:50.567Z,99811.91
2019-04-28T19:26:55.523Z,99820.22
2019-04-28T19:33:00.128Z,99819.13
2019-04-28T19:39:06.243Z,99828.22
2019-04-28T19:45:12.679Z,99830.98
2019-04-28T19:51:31.070Z,99834.11
2019-04-28T19:57:26.820Z,99844.77
2019-04-28T20:03:31.362Z,99856.69
2019-04-28T20:09:35.966Z,99861.58
2019-04-28T20:15:40.583Z,99862.89
2019-04-28T20:21:45.162Z,99863.73
2019-04-28T20:27:49.706Z,99873.28
2019-04-28T20:33:54.267Z,99872.80
2019-04-28T20:40:02.893Z,99878.47
2019-04-28T20:46:07.796Z,99883.98
2019-04-28T20:52:12.417Z,99899.05
2019-04-28T20:58:16.969Z,99900.86
2019-04-28T21:04:21.507Z,99904.20
2019-04-28T21:10:37.265Z,99913.40
2019-04-28T21:16:32.405Z,99909.56
2019-04-28T21:22:37.065Z,99914.41
2019-04-28T21:28:41.602Z,99903.19
2019-04-28T21:34:46.147Z,99900.52
2019-04-28T21:40:50.728Z,99913.83
2019-04-28T21:46:56.889Z,99916.78
2019-04-28T21:53:01.433Z,99921.62
2019-04-28T21:59:06.042Z,99921.64
2019-04-28T22:05:10.832Z,99919.55
2019-04-28T22:11:15.537Z,99931.05
2019-04-28T22:17:20.157Z,99926.94
2019-04-28T22:23:26.418Z,99932.48
2019-04-28T22:29:31.045Z,99930.22
2019-04-28T22:35:35.564Z,99934.47
2019-04-28T22:41:40.282Z,99930.13
2019-04-28T22:47:44.894Z,99942.17
2019-04-28T22:53:49.693Z,99942.62
2019-04-28T22:59:55.894Z,99942.78
2019-04-28T23:06:00.619Z,99949.66
2019-04-28T23:12:05.345Z,99955.64
2019-04-28T23:18:09.952Z,99964.29
2019-04-28T23:24:14.526Z,99964.20
2019-04-28T23:30:44.086Z,99963.49
2019-04-28T23:36:48.695Z,99966.09
2019-04-28T23:42:54.873Z,99974.34
2019-04-28T23:48:59.416Z,99968.92
2019-04-28T23:55:09.222Z,99977.27
